createdAt,value
2022-08-17T00:00:40.303Z,13.50
2022-08-17T00:05:52.137Z,13.97
2022-08-17T00:10:55.452Z,11.93
2022-08-17T00:16:00.728Z,14.00
2022-08-17T00:21:10.388Z,12.10
2022-08-17T00:26:14.475Z,12.40
2022-08-17T00:31:17.296Z,15.47
2022-08-17T00:36:20.370Z,12.67
2022-08-17T00:41:25.132Z,17.40
2022-08-17T00:46:39.347Z,13.27
2022-08-17T00:51:59.232Z,11.87
2022-08-17T00:57:07.234Z,12.30
2022-08-17T01:02:14.265Z,12.33
2022-08-17T01:07:17.499Z,15.63
2022-08-17T01:12:20.028Z,13.97
2022-08-17T01:17:22.446Z,12.67
2022-08-17T01:22:25.674Z,13.60
2022-08-17T01:27:29.526Z,15.20
2022-08-17T01:32:32.189Z,14.37
2022-08-17T01:37:38.273Z,15.07
2022-08-17T01:42:49.768Z,15.27
2022-08-17T01:47:53.954Z,12.63
2022-08-17T01:53:04.578Z,12.93
2022-08-17T01:58:09.763Z,13.17
2022-08-17T02:03:13.675Z,11.80
2022-08-17T02:08:19.852Z,14.73
2022-08-17T02:13:22.686Z,13.90
2022-08-17T02:18:25.854Z,17.93
2022-08-17T02:23:32.166Z,13.27
2022-08-17T02:28:35.018Z,16.03
2022-08-17T02:33:42.793Z,13.60
2022-08-17T02:38:46.060Z,13.63
2022-08-17T02:43:48.483Z,14.67
2022-08-17T02:48:50.919Z,14.83
2022-08-17T02:53:53.415Z,12.40
2022-08-17T02:59:15.792Z,13.63
2022-08-17T03:04:18.495Z,17.40
2022-08-17T03:09:20.936Z,14.10
2022-08-17T03:14:26.222Z,13.03
2022-08-17T03:19:28.876Z,13.87
2022-08-17T03:24:31.472Z,17.60
2022-08-17T03:29:33.915Z,13.70
2022-08-17T03:34:36.289Z,14.20
2022-08-17T03:39:39.029Z,17.27
2022-08-17T03:44:41.469Z,17.00
2022-08-17T03:50:02.705Z,21.60
2022-08-17T03:55:36.126Z,16.97
2022-08-17T04:00:39.773Z,20.07
2022-08-17T04:05:42.732Z,17.87
2022-08-17T04:10:45.480Z,20.83
2022-08-17T04:15:49.328Z,21.23
2022-08-17T04:20:51.843Z,26.40
2022-08-17T04:25:54.298Z,21.33
2022-08-17T04:30:57.340Z,27.63
2022-08-17T04:36:02.536Z,24.70
2022-08-17T04:41:25.387Z,24.77
2022-08-17T04:46:37.515Z,24.63
2022-08-17T04:51:47.927Z,26.63
2022-08-17T04:56:58.767Z,27.03
2022-08-17T05:02:01.218Z,27.97
2022-08-17T05:07:04.988Z,29.33
2022-08-17T05:12:07.858Z,25.60
2022-08-17T05:17:11.093Z,29.00
2022-08-17T05:22:14.669Z,27.93
2022-08-17T05:27:19.057Z,28.13
2022-08-17T05:32:48.324Z,29.90
2022-08-17T05:37:46.588Z,24.57
2022-08-17T05:42:50.284Z,28.80
2022-08-17T05:47:52.896Z,26.83
2022-08-17T05:53:08.289Z,22.47
2022-08-17T05:58:19.781Z,24.90
2022-08-17T06:03:59.521Z,25.63
2022-08-17T06:09:27.666Z,27.63
2022-08-17T06:14:59.675Z,24.13
2022-08-17T06:20:15.449Z,24.77
2022-08-17T06:25:34.849Z,23.37
2022-08-17T06:31:07.913Z,23.10
2022-08-17T06:36:31.629Z,23.53
2022-08-17T06:41:53.096Z,17.30
2022-08-17T06:47:12.528Z,29.43
2022-08-17T06:52:47.194Z,22.57
2022-08-17T06:58:05.845Z,18.90
2022-08-17T07:03:37.877Z,26.60
2022-08-17T07:08:57.902Z,19.63
2022-08-17T07:14:15.187Z,18.70
2022-08-17T07:19:23.667Z,18.70
2022-08-17T07:24:58.489Z,22.57
2022-08-17T07:30:10.276Z,19.17
2022-08-17T07:35:20.018Z,36.40
2022-08-17T07:40:33.838Z,16.50
2022-08-17T07:46:07.300Z,20.97
2022-08-17T07:51:27.058Z,20.77
2022-08-17T07:56:41.831Z,19.73
2022-08-17T08:02:17.110Z,15.97
2022-08-17T08:07:21.053Z,22.97
2022-08-17T08:12:47.246Z,17.30
2022-08-17T08:17:58.640Z,20.47
2022-08-17T08:23:05.668Z,17.13
2022-08-17T08:28:21.510Z,21.37
2022-08-17T08:33:35.096Z,18.80
2022-08-17T08:38:48.057Z,17.60
2022-08-17T08:44:18.480Z,23.33
2022-08-17T08:50:02.599Z,18.30
2022-08-17T08:55:13.502Z,28.07
2022-08-17T09:00:21.842Z,22.73
2022-08-17T09:05:58.155Z,13.80
2022-08-17T09:11:03.933Z,15.30
2022-08-17T09:16:36.541Z,16.27
2022-08-17T09:21:47.682Z,29.37
2022-08-17T09:27:04.082Z,11.27
2022-08-17T09:32:35.884Z,11.43
2022-08-17T09:37:54.086Z,13.17
2022-08-17T09:42:59.812Z,11.77
2022-08-17T09:48:25.022Z,8.30
2022-08-17T09:53:31.999Z,12.40
2022-08-17T09:59:17.238Z,8.50
2022-08-17T10:04:29.969Z,10.70
2022-08-17T10:09:50.592Z,25.92
2022-08-17T10:15:09.623Z,8.93
2022-08-17T10:20:20.592Z,8.55
2022-08-17T10:25:59.771Z,9.27
2022-08-17T10:31:33.011Z,30.92
2022-08-17T10:37:02.557Z,26.08
2022-08-17T10:42:30.783Z,22.52
2022-08-17T10:48:04.340Z,8.98
2022-08-17T10:53:07.523Z,20.20
2022-08-17T10:58:22.100Z,15.25
2022-08-17T11:03:26.399Z,15.32
2022-08-17T11:09:08.884Z,11.52
2022-08-17T11:14:24.014Z,14.75
2022-08-17T11:19:51.032Z,22.33
2022-08-17T11:24:54.731Z,17.58
2022-08-17T11:30:04.471Z,16.23
2022-08-17T11:35:22.023Z,22.58
2022-08-17T11:40:52.617Z,18.35
2022-08-17T11:46:10.233Z,13.13
2022-08-17T11:51:27.653Z,17.90
2022-08-17T11:56:42.943Z,13.10
2022-08-17T12:01:56.785Z,10.93
2022-08-17T12:07:08.758Z,14.18
2022-08-17T12:12:19.346Z,19.33
2022-08-17T12:17:40.939Z,10.15
2022-08-17T12:23:12.080Z,17.45
2022-08-17T12:28:28.006Z,15.02
2022-08-17T12:33:30.906Z,20.77
2022-08-17T12:38:36.275Z,11.73
2022-08-17T12:43:38.785Z,14.15
2022-08-17T12:48:58.826Z,23.77
2022-08-17T12:54:02.803Z,49.63
2022-08-17T12:59:07.200Z,75.05
2022-08-17T13:04:14.229Z,6.80
2022-08-17T13:09:35.972Z,7.47
2022-08-17T13:14:46.234Z,8.80
2022-08-17T13:19:50.688Z,8.85
2022-08-17T13:24:58.009Z,6.93
2022-08-17T13:30:07.480Z,7.03
2022-08-17T13:35:39.603Z,6.70
2022-08-17T13:40:49.993Z,6.60
2022-08-17T13:45:52.964Z,6.90
2022-08-17T13:50:55.403Z,8.48
2022-08-17T13:56:33.436Z,6.93
2022-08-17T14:01:44.132Z,7.35
2022-08-17T14:06:53.967Z,6.57
2022-08-17T14:11:58.114Z,7.53
2022-08-17T14:17:00.584Z,7.97
2022-08-17T14:22:04.979Z,7.05
2022-08-17T14:27:12.184Z,7.25
2022-08-17T14:32:36.162Z,6.90
2022-08-17T14:37:39.237Z,6.70
2022-08-17T14:42:44.135Z,6.80
2022-08-17T14:47:48.685Z,6.90
2022-08-17T14:52:51.254Z,6.63
2022-08-17T14:57:53.802Z,6.65
2022-08-17T15:02:58.829Z,6.35
2022-08-17T15:08:02.729Z,8.30
2022-08-17T15:13:14.596Z,8.68
2022-08-17T15:18:17.655Z,7.50
2022-08-17T15:23:22.244Z,6.97
2022-08-17T15:28:25.358Z,7.60
2022-08-17T15:33:30.254Z,9.77
2022-08-17T15:38:39.703Z,7.25
2022-08-17T15:43:43.709Z,6.93
2022-08-17T15:48:50.051Z,8.18
2022-08-17T15:54:00.302Z,7.55
2022-08-17T15:59:07.067Z,9.07
2022-08-17T16:04:26.820Z,8.05
2022-08-17T16:09:33.671Z,6.53
2022-08-17T16:14:36.450Z,7.95
2022-08-17T16:19:40.200Z,8.50
2022-08-17T16:24:56.940Z,6.75
2022-08-17T16:30:00.463Z,11.00
2022-08-17T16:35:05.335Z,9.05
2022-08-17T16:40:08.601Z,8.77
2022-08-17T16:45:16.959Z,7.75
2022-08-17T16:50:22.097Z,8.55
2022-08-17T16:55:24.554Z,6.35
2022-08-17T17:00:26.985Z,7.88
2022-08-17T17:05:57.771Z,7.00
2022-08-17T17:11:15.151Z,9.95
2022-08-17T17:16:24.029Z,8.35
2022-08-17T17:21:35.711Z,6.95
2022-08-17T17:27:07.403Z,6.97
2022-08-17T17:32:21.552Z,7.07
2022-08-17T17:37:29.070Z,8.00
2022-08-17T17:42:33.032Z,8.05
2022-08-17T17:47:36.419Z,12.75
2022-08-17T17:53:08.899Z,8.45
2022-08-17T17:58:37.497Z,8.98
2022-08-17T18:04:01.648Z,16.98
2022-08-17T18:09:34.164Z,8.27
2022-08-17T18:14:41.223Z,12.10
2022-08-17T18:19:45.256Z,7.78
2022-08-17T18:24:56.194Z,8.85
2022-08-17T18:30:07.110Z,14.02
2022-08-17T18:35:11.541Z,12.23
2022-08-17T18:40:16.798Z,11.13
2022-08-17T18:45:42.403Z,8.07
2022-08-17T18:50:45.792Z,8.95
2022-08-17T18:55:48.393Z,12.02
2022-08-17T19:00:51.537Z,16.30
2022-08-17T19:06:22.052Z,12.90
2022-08-17T19:11:30.118Z,10.20
2022-08-17T19:16:43.828Z,10.43
2022-08-17T19:22:00.095Z,9.43
2022-08-17T19:27:18.568Z,12.00
2022-08-17T19:32:27.885Z,12.37
2022-08-17T19:37:51.849Z,9.23
2022-08-17T19:43:27.636Z,8.87
2022-08-17T19:48:41.838Z,9.63
2022-08-17T19:54:04.992Z,12.50
2022-08-17T19:59:12.184Z,11.80
2022-08-17T20:04:32.389Z,11.90
2022-08-17T20:09:40.876Z,11.83
2022-08-17T20:15:04.520Z,13.03
2022-08-17T20:20:20.239Z,13.30
2022-08-17T20:25:31.046Z,11.70
2022-08-17T20:30:41.438Z,10.47
2022-08-17T20:36:15.569Z,14.97
2022-08-17T20:41:26.736Z,16.40
2022-08-17T20:46:38.566Z,9.07
2022-08-17T20:52:00.439Z,11.37
2022-08-17T20:57:06.210Z,11.20
2022-08-17T21:02:21.829Z,12.00
2022-08-17T21:07:54.070Z,13.17
2022-08-17T21:13:10.248Z,12.03
2022-08-17T21:18:38.679Z,10.23
2022-08-17T21:24:00.098Z,12.80
2022-08-17T21:29:32.562Z,16.47
2022-08-17T21:35:12.419Z,11.93
2022-08-17T21:40:18.481Z,10.40
2022-08-17T21:45:27.496Z,14.03
2022-08-17T21:50:30.060Z,10.40
2022-08-17T21:55:36.018Z,21.97
2022-08-17T22:00:38.638Z,9.63
2022-08-17T22:05:41.137Z,11.20
2022-08-17T22:10:45.456Z,15.87
2022-08-17T22:16:27.955Z,11.17
2022-08-17T22:21:32.163Z,9.80
2022-08-17T22:26:58.086Z,15.17
2022-08-17T22:32:00.535Z,13.43
2022-08-17T22:37:29.140Z,14.73
2022-08-17T22:42:32.261Z,12.50
2022-08-17T22:47:40.999Z,11.20
2022-08-17T22:53:03.501Z,12.47
2022-08-17T22:58:37.146Z,12.87
2022-08-17T23:03:53.959Z,11.90
2022-08-17T23:08:57.668Z,11.40
2022-08-17T23:14:00.154Z,10.73
2022-08-17T23:19:02.605Z,15.30
2022-08-17T23:24:07.569Z,11.33
2022-08-17T23:29:10.072Z,11.23
2022-08-17T23:34:14.680Z,11.17
2022-08-17T23:39:27.350Z,11.93
2022-08-17T23:44:31.104Z,10.87
2022-08-17T23:49:34.811Z,12.80
2022-08-17T23:54:44.573Z,15.07
2022-08-17T23:59:47.349Z,14.87
